Time;durP1;ratioP1;P1;durP2;ratioP2;P2;SDS_P1;SDS_P2;PMS_P1;PMS_P2;Temp;Humidity;BMP_temperature;BMP_pressure;BME280_temperature;BME280_humidity;BME280_pressure;Samples;Min_cycle;Max_cycle;Signal;HPM_P1;HPM_P2
2023/01/02 00:01:59;;;;;;;31.70;9.00;;;;;;;;;;5033497;28;20630;-73
2023/01/02 00:04:25;;;;;;;28.05;10.02;;;;;;;;;;5027812;28;20767;-73
2023/01/02 00:06:52;;;;;;;19.67;8.02;;;;;;;;;;5032724;28;20059;-73
2023/01/02 00:09:18;;;;;;;24.45;9.70;;;;;;;;;;5015950;28;20043;-73
2023/01/02 00:11:44;;;;;;;31.00;10.43;;;;;;;;;;5028865;28;20427;-73
2023/01/02 00:14:10;;;;;;;29.60;10.90;;;;;;;;;;5052081;28;20040;-73
2023/01/02 00:16:37;;;;;;;18.02;9.90;;;;;;;;;;5025560;28;20044;-73
2023/01/02 00:19:03;;;;;;;25.35;11.40;;;;;;;;;;5053351;28;20036;-73
2023/01/02 00:21:29;;;;;;;27.60;11.20;;;;;;;;;;5054111;28;20040;-73
2023/01/02 00:23:55;;;;;;;24.25;11.73;;;;;;;;;;5053277;28;20045;-74
2023/01/02 00:26:21;;;;;;;21.33;11.65;;;;;;;;;;5054589;28;20162;-73
2023/01/02 00:28:47;;;;;;;24.98;11.02;;;;;;;;;;5030734;28;20074;-74
2023/01/02 00:31:13;;;;;;;21.02;11.40;;;;;;;;;;5030600;28;20420;-73
2023/01/02 00:33:39;;;;;;;24.67;12.18;;;;;;;;;;5031747;28;20044;-73
2023/01/02 00:36:10;;;;;;;27.42;12.68;;;;;;;;;;5049061;28;20166;-74
2023/01/02 00:38:37;;;;;;;26.70;13.55;;;;;;;;;;5050757;28;20078;-75
2023/01/02 00:41:03;;;;;;;27.73;14.27;;;;;;;;;;5033631;28;20053;-74
2023/01/02 00:43:29;;;;;;;28.35;15.38;;;;;;;;;;5035180;28;20048;-75
2023/01/02 00:45:55;;;;;;;25.67;14.35;;;;;;;;;;5032737;28;20385;-72
2023/01/02 00:48:21;;;;;;;26.30;15.20;;;;;;;;;;5014431;28;20048;-74
2023/01/02 00:50:48;;;;;;;29.00;15.80;;;;;;;;;;5051511;28;20495;-74
2023/01/02 00:53:14;;;;;;;32.65;16.45;;;;;;;;;;5036996;28;20048;-73
2023/01/02 00:55:43;;;;;;;27.45;16.60;;;;;;;;;;4991206;28;1163795;-74
2023/01/02 00:58:09;;;;;;;40.13;19.40;;;;;;;;;;5050367;28;20040;-73
2023/01/02 01:00:35;;;;;;;31.55;18.48;;;;;;;;;;5030099;28;20048;-73
2023/01/02 01:03:01;;;;;;;33.88;19.33;;;;;;;;;;5015510;28;20049;-74
2023/01/02 01:05:28;;;;;;;36.67;19.13;;;;;;;;;;5050323;28;20048;-74
2023/01/02 01:07:54;;;;;;;41.17;22.30;;;;;;;;;;5029548;28;21889;-74
2023/01/02 01:10:21;;;;;;;40.78;22.08;;;;;;;;;;5029384;28;20465;-74
2023/01/02 01:12:47;;;;;;;38.08;22.50;;;;;;;;;;5032691;28;20048;-75
2023/01/02 01:15:13;;;;;;;40.38;22.67;;;;;;;;;;5032114;28;20051;-75
2023/01/02 01:17:39;;;;;;;32.65;19.65;;;;;;;;;;5050642;28;20504;-75
2023/01/02 01:20:06;;;;;;;32.92;20.60;;;;;;;;;;5029425;28;20040;-74
2023/01/02 01:22:32;;;;;;;40.28;21.80;;;;;;;;;;5032967;28;20580;-74
2023/01/02 01:24:58;;;;;;;37.75;20.08;;;;;;;;;;5016684;28;20132;-74
2023/01/02 01:27:24;;;;;;;44.08;23.35;;;;;;;;;;5033980;28;20070;-74
2023/01/02 01:29:50;;;;;;;41.15;22.83;;;;;;;;;;5029081;28;21647;-74
2023/01/02 01:32:16;;;;;;;38.47;21.55;;;;;;;;;;5033889;28;20125;-74
2023/01/02 01:34:42;;;;;;;28.83;19.42;;;;;;;;;;5033737;28;20080;-74
2023/01/02 01:37:08;;;;;;;39.55;19.98;;;;;;;;;;5019259;28;20037;-74
2023/01/02 01:39:34;;;;;;;37.83;21.08;;;;;;;;;;5030604;28;20052;-74
2023/01/02 01:42:01;;;;;;;33.72;18.55;;;;;;;;;;5029954;28;22104;-74
2023/01/02 01:44:46;;;;;;;36.10;19.58;;;;;;;;;;5032624;28;20124;-74
2023/01/02 01:47:25;;;;;;;32.70;19.90;;;;;;;;;;5014418;28;20047;-73
2023/01/02 01:49:54;;;;;;;37.10;18.95;;;;;;;;;;5030801;28;20122;-74
2023/01/02 01:52:21;;;;;;;35.60;20.33;;;;;;;;;;5029926;28;20595;-74
2023/01/02 01:54:51;;;;;;;35.00;20.50;;;;;;;;;;5017067;28;20661;-74
2023/01/02 01:57:20;;;;;;;42.70;21.85;;;;;;;;;;5034388;28;20582;-72
2023/01/02 01:59:46;;;;;;;43.92;23.80;;;;;;;;;;5028942;28;20033;-73
2023/01/02 02:02:13;;;;;;;41.78;24.48;;;;;;;;;;5048036;28;20039;-74
2023/01/02 02:04:40;;;;;;;41.47;23.75;;;;;;;;;;5045979;28;20051;-74
2023/01/02 02:07:06;;;;;;;42.72;27.13;;;;;;;;;;5052981;28;20070;-74
2023/01/02 02:09:35;;;;;;;45.25;25.70;;;;;;;;;;5041693;28;20417;-74
2023/01/02 02:12:02;;;;;;;45.28;27.35;;;;;;;;;;5043147;28;20159;-74
2023/01/02 02:14:29;;;;;;;46.30;28.40;;;;;;;;;;5052943;28;20052;-74
2023/01/02 02:16:55;;;;;;;58.60;30.20;;;;;;;;;;5054926;28;20147;-75
2023/01/02 02:19:40;;;;;;;57.53;31.30;;;;;;;;;;5039713;28;20508;-74
2023/01/02 02:22:27;;;;;;;59.42;31.85;;;;;;;;;;5033208;28;20048;-74
2023/01/02 02:25:11;;;;;;;61.42;34.30;;;;;;;;;;5015460;28;20883;-74
2023/01/02 02:27:37;;;;;;;;;;;;;;;;;;5033551;28;20122;-74
2023/01/02 02:30:10;;;;;;;61.47;33.25;;;;;;;;;;5033791;28;21275;-74
2023/01/02 02:32:55;;;;;;;60.72;33.78;;;;;;;;;;5032649;28;20512;-74
2023/01/02 02:35:33;;;;;;;65.18;34.38;;;;;;;;;;5031964;28;20059;-74
2023/01/02 02:37:59;;;;;;;61.15;34.03;;;;;;;;;;5048887;28;20048;-74
2023/01/02 02:40:31;;;;;;;61.70;33.30;;;;;;;;;;5030062;28;20044;-74
2023/01/02 02:43:10;;;;;;;58.22;32.47;;;;;;;;;;5030917;28;20052;-73
2023/01/02 02:45:55;;;;;;;59.38;35.33;;;;;;;;;;5030091;28;20817;-73
2023/01/02 02:48:27;;;;;;;64.57;33.85;;;;;;;;;;5029739;28;20555;-73
2023/01/02 02:51:00;;;;;;;54.75;29.83;;;;;;;;;;5027403;28;20747;-73
2023/01/02 02:53:32;;;;;;;50.13;29.63;;;;;;;;;;5031425;28;20040;-74
2023/01/02 02:56:00;;;;;;;46.20;27.25;;;;;;;;;;5029569;28;20052;-74
2023/01/02 02:58:28;;;;;;;49.58;30.33;;;;;;;;;;5049926;28;20075;-74
2023/01/02 03:01:01;;;;;;;56.67;31.08;;;;;;;;;;5031152;28;20128;-74
2023/01/02 03:03:28;;;;;;;45.35;28.88;;;;;;;;;;5026960;28;20541;-74
2023/01/02 03:06:03;;;;;;;45.22;27.17;;;;;;;;;;5012711;28;20048;-74
2023/01/02 03:08:37;;;;;;;43.00;25.45;;;;;;;;;;5031236;28;20058;-74
2023/01/02 03:11:03;;;;;;;43.22;25.88;;;;;;;;;;5012692;28;20052;-75
2023/01/02 03:13:39;;;;;;;40.85;23.02;;;;;;;;;;5012634;28;20143;-75
2023/01/02 03:16:11;;;;;;;35.75;21.80;;;;;;;;;;5028597;28;20040;-73
2023/01/02 03:18:45;;;;;;;34.60;24.23;;;;;;;;;;5027473;28;20063;-73
2023/01/02 03:21:21;;;;;;;38.25;22.73;;;;;;;;;;5030433;28;20051;-74
2023/01/02 03:23:48;;;;;;;36.15;20.80;;;;;;;;;;5031279;28;20083;-74
2023/01/02 03:26:20;;;;;;;31.42;19.75;;;;;;;;;;5016099;28;20048;-74
2023/01/02 03:28:48;;;;;;;35.63;21.52;;;;;;;;;;5030157;28;20044;-73
2023/01/02 03:31:17;;;;;;;36.20;22.73;;;;;;;;;;5030750;28;20645;-75
2023/01/02 03:33:45;;;;;;;35.40;19.38;;;;;;;;;;5050505;28;20047;-74
2023/01/02 03:36:16;;;;;;;29.65;18.58;;;;;;;;;;5033352;28;20040;-74
2023/01/02 03:38:45;;;;;;;39.33;22.52;;;;;;;;;;5034212;28;20058;-75
2023/01/02 03:41:15;;;;;;;39.53;22.70;;;;;;;;;;5033149;28;20054;-75
2023/01/02 03:43:43;;;;;;;30.60;19.55;;;;;;;;;;5034622;28;20857;-75
2023/01/02 03:46:17;;;;;;;36.00;22.33;;;;;;;;;;5034830;28;20187;-75
2023/01/02 03:48:45;;;;;;;40.53;22.17;;;;;;;;;;5025020;28;20074;-74
2023/01/02 03:51:11;;;;;;;34.13;19.85;;;;;;;;;;5080602;28;20040;-74
2023/01/02 03:53:38;;;;;;;34.15;20.98;;;;;;;;;;5062921;28;20036;-74
2023/01/02 03:56:04;;;;;;;29.05;19.55;;;;;;;;;;5055978;28;20044;-74
2023/01/02 03:58:45;;;;;;;31.70;19.98;;;;;;;;;;5073078;28;20060;-75
2023/01/02 04:01:13;;;;;;;33.92;20.33;;;;;;;;;;5030429;28;20464;-74
2023/01/02 04:03:51;;;;;;;38.88;21.27;;;;;;;;;;5035268;28;20127;-74
2023/01/02 04:06:24;;;;;;;32.90;21.10;;;;;;;;;;5034695;28;20048;-75
2023/01/02 04:08:55;;;;;;;31.42;19.05;;;;;;;;;;5037042;28;20057;-75
2023/01/02 04:11:23;;;;;;;35.95;20.38;;;;;;;;;;5034946;28;20044;-75
2023/01/02 04:13:51;;;;;;;37.20;21.52;;;;;;;;;;5031821;28;20036;-75
2023/01/02 04:16:20;;;;;;;33.75;20.70;;;;;;;;;;5033167;28;20734;-75
2023/01/02 04:18:48;;;;;;;32.30;20.05;;;;;;;;;;5031855;28;20040;-75
2023/01/02 04:21:19;;;;;;;37.80;22.02;;;;;;;;;;5034693;28;20036;-75
2023/01/02 04:23:47;;;;;;;35.72;16.92;;;;;;;;;;5031103;28;20647;-74
2023/01/02 04:26:23;;;;;;;33.40;19.20;;;;;;;;;;5052534;28;20048;-75
2023/01/02 04:28:49;;;;;;;33.50;20.95;;;;;;;;;;5040185;28;20094;-75
2023/01/02 04:31:17;;;;;;;37.25;20.05;;;;;;;;;;5035562;28;20048;-74
2023/01/02 04:33:58;;;;;;;38.97;21.55;;;;;;;;;;5039287;28;20131;-74
2023/01/02 04:36:24;;;;;;;35.05;19.58;;;;;;;;;;5026911;28;20197;-75
2023/01/02 04:38:50;;;;;;;38.10;20.98;;;;;;;;;;5032473;28;20043;-74
2023/01/02 04:41:19;;;;;;;37.08;20.40;;;;;;;;;;5020677;28;21484;-74
2023/01/02 04:43:45;;;;;;;39.95;21.52;;;;;;;;;;5039484;28;20049;-75
2023/01/02 04:46:11;;;;;;;44.95;22.85;;;;;;;;;;5036409;28;20210;-74
2023/01/02 04:48:37;;;;;;;42.33;21.73;;;;;;;;;;5034011;28;20048;-74
2023/01/02 04:51:03;;;;;;;41.22;20.48;;;;;;;;;;5033942;28;21610;-74
2023/01/02 04:53:29;;;;;;;32.83;17.83;;;;;;;;;;5033327;28;20148;-74
2023/01/02 04:55:56;;;;;;;34.97;21.90;;;;;;;;;;5018681;28;20178;-75
2023/01/02 04:58:23;;;;;;;39.17;21.48;;;;;;;;;;5032397;28;21036;-75
2023/01/02 05:00:49;;;;;;;37.65;20.70;;;;;;;;;;5033817;28;20052;-75
2023/01/02 05:03:15;;;;;;;40.63;22.58;;;;;;;;;;5011702;28;20081;-75
2023/01/02 05:05:41;;;;;;;43.70;23.55;;;;;;;;;;5026661;28;20047;-75
2023/01/02 05:08:07;;;;;;;43.83;23.33;;;;;;;;;;5019389;28;20155;-75
2023/01/02 05:10:33;;;;;;;55.35;25.17;;;;;;;;;;5028284;28;20052;-76
2023/01/02 05:12:59;;;;;;;41.53;22.85;;;;;;;;;;5016645;28;20543;-77
2023/01/02 05:15:26;;;;;;;46.38;24.60;;;;;;;;;;5033136;28;20047;-78
2023/01/02 05:17:52;;;;;;;54.58;25.05;;;;;;;;;;5024861;28;20127;-78
2023/01/02 05:20:18;;;;;;;52.10;25.58;;;;;;;;;;5040210;28;20466;-78
2023/01/02 05:25:33;;;;;;;46.25;23.05;;;;;;;;;;5040425;28;20167;-79
2023/01/02 05:27:59;;;;;;;34.22;20.58;;;;;;;;;;5034394;28;20040;-79
2023/01/02 05:30:25;;;;;;;38.78;21.73;;;;;;;;;;5020458;28;20098;-79
2023/01/02 05:32:51;;;;;;;42.33;20.65;;;;;;;;;;5042970;28;20067;-78
2023/01/02 05:35:17;;;;;;;28.40;16.45;;;;;;;;;;5064405;28;20037;-78
2023/01/02 05:37:43;;;;;;;34.22;18.88;;;;;;;;;;5046780;28;20048;-78
2023/01/02 05:40:10;;;;;;;30.90;14.77;;;;;;;;;;5026523;28;20101;-78
2023/01/02 05:42:36;;;;;;;25.75;15.52;;;;;;;;;;5044260;28;20052;-79
2023/01/02 05:45:02;;;;;;;26.55;15.55;;;;;;;;;;5038705;28;20070;-78
2023/01/02 05:47:28;;;;;;;27.65;15.77;;;;;;;;;;5022394;28;20063;-78
2023/01/02 05:49:54;;;;;;;23.23;14.95;;;;;;;;;;5037364;28;20048;-78
2023/01/02 05:52:20;;;;;;;30.40;15.52;;;;;;;;;;5021262;28;20045;-79
2023/01/02 05:54:46;;;;;;;32.75;15.20;;;;;;;;;;5020643;28;20070;-79
2023/01/02 05:57:13;;;;;;;32.17;16.25;;;;;;;;;;5038552;28;20175;-79
2023/01/02 05:59:39;;;;;;;28.38;15.40;;;;;;;;;;5027528;28;20047;-79
2023/01/02 06:02:05;;;;;;;25.15;14.25;;;;;;;;;;5034950;28;20046;-78
2023/01/02 06:04:31;;;;;;;23.25;14.43;;;;;;;;;;5051807;28;20040;-79
2023/01/02 06:06:57;;;;;;;25.88;15.93;;;;;;;;;;5034128;28;20411;-79
2023/01/02 06:09:23;;;;;;;25.92;14.05;;;;;;;;;;5021530;28;20760;-80
2023/01/02 06:11:49;;;;;;;31.15;16.25;;;;;;;;;;5027062;28;20056;-79
2023/01/02 06:14:17;;;;;;;32.38;17.05;;;;;;;;;;5027804;28;20040;-79
2023/01/02 06:16:43;;;;;;;30.35;15.05;;;;;;;;;;5004068;28;20054;-78
2023/01/02 06:19:09;;;;;;;25.33;15.00;;;;;;;;;;5024108;28;20086;-79
2023/01/02 06:21:35;;;;;;;38.03;18.08;;;;;;;;;;5022901;28;20047;-78
2023/01/02 06:24:01;;;;;;;35.30;16.98;;;;;;;;;;5005636;28;20060;-79
2023/01/02 06:26:28;;;;;;;42.42;18.73;;;;;;;;;;5024395;28;20044;-78
2023/01/02 06:28:56;;;;;;;40.97;19.60;;;;;;;;;;5038331;28;20054;-78
2023/01/02 06:31:23;;;;;;;44.55;18.15;;;;;;;;;;5021978;28;20044;-78
2023/01/02 06:33:56;;;;;;;54.67;20.90;;;;;;;;;;5039072;28;22089;-79
2023/01/02 06:36:22;;;;;;;49.30;20.70;;;;;;;;;;5006373;28;20048;-80
2023/01/02 06:38:48;;;;;;;50.75;19.55;;;;;;;;;;5026355;28;20388;-82
2023/01/02 06:41:15;;;;;;;45.92;18.77;;;;;;;;;;5031961;28;20036;-80
2023/01/02 06:43:42;;;;;;;36.35;18.98;;;;;;;;;;5023938;28;20072;-82
2023/01/02 06:46:09;;;;;;;36.05;18.77;;;;;;;;;;5024009;28;20051;-82
2023/01/02 06:48:35;;;;;;;32.33;16.95;;;;;;;;;;5010405;28;20380;-82
2023/01/02 06:51:05;;;;;;;23.25;13.43;;;;;;;;;;5005743;28;20040;-81
2023/01/02 06:53:35;;;;;;;22.63;13.40;;;;;;;;;;5034524;28;20040;-80
2023/01/02 06:56:01;;;;;;;24.25;12.90;;;;;;;;;;5036737;28;21034;-75
2023/01/02 06:58:32;;;;;;;24.20;13.50;;;;;;;;;;5034497;28;20045;-75
2023/01/02 07:01:21;;;;;;;20.95;12.63;;;;;;;;;;5020945;28;20090;-75
2023/01/02 07:03:47;;;;;;;21.10;13.00;;;;;;;;;;5012276;28;20048;-76
2023/01/02 07:06:14;;;;;;;19.98;12.95;;;;;;;;;;5019672;28;20722;-75
2023/01/02 07:08:42;;;;;;;20.40;13.88;;;;;;;;;;5025810;28;20384;-75
2023/01/02 07:11:09;;;;;;;19.75;13.55;;;;;;;;;;5027191;28;20048;-75
2023/01/02 07:13:35;;;;;;;20.80;13.75;;;;;;;;;;5052894;28;20040;-77
2023/01/02 07:16:02;;;;;;;22.90;14.35;;;;;;;;;;5059114;28;20063;-77
2023/01/02 07:18:28;;;;;;;22.05;14.25;;;;;;;;;;5046040;28;20032;-76
2023/01/02 07:20:55;;;;;;;22.80;9.77;;;;;;;;;;5032642;28;20211;-76
2023/01/02 07:23:21;;;;;;;19.40;8.50;;;;;;;;;;5043994;28;20044;-74
2023/01/02 07:25:54;;;;;;;18.40;7.07;;;;;;;;;;5027224;28;20120;-76
2023/01/02 07:28:20;;;;;;;21.50;8.20;;;;;;;;;;5019145;28;20054;-77
2023/01/02 07:30:47;;;;;;;27.02;9.57;;;;;;;;;;5020858;28;20098;-76
2023/01/02 07:33:13;;;;;;;20.42;8.07;;;;;;;;;;5045211;28;20040;-77
2023/01/02 07:35:39;;;;;;;17.80;6.53;;;;;;;;;;5042523;28;20036;-79
2023/01/02 07:38:05;;;;;;;17.95;6.05;;;;;;;;;;5027742;28;20280;-79
2023/01/02 07:40:32;;;;;;;11.88;4.60;;;;;;;;;;5012912;28;20045;-80
2023/01/02 07:42:58;;;;;;;8.20;3.75;;;;;;;;;;5029214;28;20376;-79
2023/01/02 07:45:24;;;;;;;10.98;3.47;;;;;;;;;;5044272;28;22311;-80
2023/01/02 07:47:50;;;;;;;11.27;3.70;;;;;;;;;;5029039;28;20032;-79
2023/01/02 07:50:16;;;;;;;9.68;3.58;;;;;;;;;;5042491;28;20048;-79
2023/01/02 07:52:43;;;;;;;6.47;3.08;;;;;;;;;;5023412;28;20040;-79
2023/01/02 07:55:09;;;;;;;9.63;2.90;;;;;;;;;;5025101;28;20049;-78
2023/01/02 07:57:35;;;;;;;8.73;3.35;;;;;;;;;;5035348;28;20046;-79
2023/01/02 08:00:02;;;;;;;8.82;4.10;;;;;;;;;;5039767;28;20054;-78
2023/01/02 08:02:28;;;;;;;17.77;7.13;;;;;;;;;;5022609;28;20092;-78
2023/01/02 08:04:55;;;;;;;12.73;6.75;;;;;;;;;;5014514;28;20427;-78
2023/01/02 08:07:22;;;;;;;11.30;4.80;;;;;;;;;;5040983;28;20047;-75
2023/01/02 08:09:48;;;;;;;7.07;3.92;;;;;;;;;;5040942;28;20143;-77
2023/01/02 08:12:14;;;;;;;8.18;4.50;;;;;;;;;;5041405;28;21998;-76
2023/01/02 08:14:40;;;;;;;7.47;2.55;;;;;;;;;;5021385;28;20047;-76
2023/01/02 08:17:06;;;;;;;6.45;2.75;;;;;;;;;;5025414;28;20052;-76
2023/01/02 08:19:32;;;;;;;10.32;4.80;;;;;;;;;;5024346;28;20046;-76
2023/01/02 08:21:58;;;;;;;5.55;3.38;;;;;;;;;;5024942;28;20051;-77
2023/01/02 08:24:24;;;;;;;10.48;3.35;;;;;;;;;;5038579;28;20718;-77
2023/01/02 08:26:50;;;;;;;6.20;2.90;;;;;;;;;;5060970;28;20040;-77
2023/01/02 08:29:17;;;;;;;14.68;3.33;;;;;;;;;;5028326;28;20036;-77
2023/01/02 08:31:43;;;;;;;4.97;2.70;;;;;;;;;;5022128;28;20501;-76
2023/01/02 08:34:13;;;;;;;7.57;2.50;;;;;;;;;;5039223;28;20048;-76
2023/01/02 08:36:39;;;;;;;8.13;2.72;;;;;;;;;;5037984;28;20040;-76
2023/01/02 08:39:05;;;;;;;6.45;2.60;;;;;;;;;;5036812;28;20058;-76
2023/01/02 08:41:39;;;;;;;12.68;2.63;;;;;;;;;;5040160;28;20050;-75
2023/01/02 08:44:05;;;;;;;9.18;2.15;;;;;;;;;;5041800;28;20051;-75
2023/01/02 08:46:32;;;;;;;8.88;2.30;;;;;;;;;;5039448;28;21698;-75
2023/01/02 08:48:58;;;;;;;8.13;2.33;;;;;;;;;;5040817;28;20464;-75
2023/01/02 08:51:24;;;;;;;5.45;2.20;;;;;;;;;;5053008;28;20056;-75
2023/01/02 08:53:51;;;;;;;4.45;2.25;;;;;;;;;;5050551;28;20044;-74
2023/01/02 08:56:18;;;;;;;8.48;2.40;;;;;;;;;;5038066;28;20138;-75
2023/01/02 08:58:44;;;;;;;11.32;3.08;;;;;;;;;;5052110;28;20036;-75
2023/01/02 09:01:10;;;;;;;9.57;2.20;;;;;;;;;;5043274;28;20040;-75
2023/01/02 09:03:36;;;;;;;14.82;3.03;;;;;;;;;;5037234;28;20048;-74
2023/01/02 09:06:02;;;;;;;7.07;2.33;;;;;;;;;;5040220;28;20058;-75
2023/01/02 09:08:28;;;;;;;8.45;2.75;;;;;;;;;;5023740;28;20095;-74
2023/01/02 09:10:54;;;;;;;10.20;3.03;;;;;;;;;;5024530;28;20235;-73
2023/01/02 09:13:20;;;;;;;7.32;3.00;;;;;;;;;;5058755;28;20051;-73
2023/01/02 09:15:46;;;;;;;12.13;2.85;;;;;;;;;;5026596;28;20529;-74
2023/01/02 09:18:13;;;;;;;11.80;4.20;;;;;;;;;;5040473;28;20409;-73
2023/01/02 09:20:39;;;;;;;9.25;2.60;;;;;;;;;;5039522;28;20041;-74
2023/01/02 09:23:05;;;;;;;6.30;2.95;;;;;;;;;;5023712;28;20449;-73
2023/01/02 09:25:31;;;;;;;9.95;3.08;;;;;;;;;;5054365;28;20102;-73
2023/01/02 09:27:57;;;;;;;11.50;3.25;;;;;;;;;;5035743;28;20412;-72
2023/01/02 09:30:24;;;;;;;10.90;3.53;;;;;;;;;;5019872;28;20032;-72
2023/01/02 09:32:50;;;;;;;7.43;2.92;;;;;;;;;;5033979;28;20588;-77
2023/01/02 09:35:16;;;;;;;6.88;2.97;;;;;;;;;;5035840;28;20065;-77
2023/01/02 09:37:43;;;;;;;7.25;2.35;;;;;;;;;;5037878;28;20116;-77
2023/01/02 09:40:11;;;;;;;9.27;3.05;;;;;;;;;;5024009;28;20541;-78
2023/01/02 09:42:37;;;;;;;9.13;2.90;;;;;;;;;;5038871;28;20048;-77
2023/01/02 09:45:04;;;;;;;8.93;2.53;;;;;;;;;;5037427;28;20519;-78
2023/01/02 09:47:31;;;;;;;6.80;2.70;;;;;;;;;;5042495;28;20048;-78
2023/01/02 09:50:02;;;;;;;6.05;2.42;;;;;;;;;;5035253;28;21640;-75
2023/01/02 09:52:42;;;;;;;6.13;2.30;;;;;;;;;;5051800;28;20048;-76
2023/01/02 09:55:15;;;;;;;5.80;2.10;;;;;;;;;;5037951;28;20052;-77
2023/01/02 09:57:48;;;;;;;13.57;2.40;;;;;;;;;;5019465;28;20044;-75
2023/01/02 10:00:19;;;;;;;6.72;2.00;;;;;;;;;;5033998;28;20472;-77
2023/01/02 10:03:04;;;;;;;10.45;2.03;;;;;;;;;;5039946;28;20053;-77
2023/01/02 10:05:30;;;;;;;9.52;2.60;;;;;;;;;;5018101;28;20036;-77
2023/01/02 10:08:01;;;;;;;5.97;2.47;;;;;;;;;;5031279;28;20192;-77
2023/01/02 10:10:33;;;;;;;9.52;2.80;;;;;;;;;;5052987;28;20041;-76
2023/01/02 10:13:05;;;;;;;8.00;2.63;;;;;;;;;;5022175;28;20031;-77
2023/01/02 10:15:32;;;;;;;9.68;2.88;;;;;;;;;;5021318;28;20041;-76
2023/01/02 10:18:00;;;;;;;9.88;2.88;;;;;;;;;;5023718;28;20036;-75
2023/01/02 10:20:29;;;;;;;7.30;3.05;;;;;;;;;;5053219;28;20055;-77
2023/01/02 10:22:59;;;;;;;6.82;2.80;;;;;;;;;;5038018;28;20517;-77
2023/01/02 10:25:37;;;;;;;5.68;2.63;;;;;;;;;;5035899;28;20055;-77
2023/01/02 10:28:06;;;;;;;6.97;3.00;;;;;;;;;;5063937;28;20052;-76
2023/01/02 10:30:35;;;;;;;11.57;3.55;;;;;;;;;;5066769;28;20052;-77
2023/01/02 10:33:03;;;;;;;8.40;3.22;;;;;;;;;;5040951;28;20055;-71
2023/01/02 10:35:39;;;;;;;7.32;2.80;;;;;;;;;;5051074;28;20032;-71
2023/01/02 10:38:05;;;;;;;9.27;3.15;;;;;;;;;;5030594;28;20048;-71
2023/01/02 10:40:31;;;;;;;7.32;3.05;;;;;;;;;;5053182;28;20044;-72
2023/01/02 10:43:00;;;;;;;7.15;3.00;;;;;;;;;;5058433;28;20055;-72
2023/01/02 10:45:26;;;;;;;7.90;3.65;;;;;;;;;;5040676;28;20044;-72
2023/01/02 10:47:53;;;;;;;7.88;3.50;;;;;;;;;;5059298;28;20351;-72
2023/01/02 10:50:24;;;;;;;8.25;4.22;;;;;;;;;;5040846;28;20119;-72
2023/01/02 10:52:52;;;;;;;5.40;3.33;;;;;;;;;;5037002;28;20048;-72
2023/01/02 10:55:29;;;;;;;5.90;3.75;;;;;;;;;;5039914;28;20411;-72
2023/01/02 10:58:01;;;;;;;7.05;3.67;;;;;;;;;;5056678;28;20067;-71
2023/01/02 11:00:28;;;;;;;7.45;3.53;;;;;;;;;;5057052;28;20123;-72
2023/01/02 11:02:55;;;;;;;6.75;3.28;;;;;;;;;;5058383;28;20051;-73
2023/01/02 11:05:25;;;;;;;4.50;3.22;;;;;;;;;;5055549;28;20531;-72
2023/01/02 11:07:51;;;;;;;5.22;3.17;;;;;;;;;;5022419;28;20040;-71
2023/01/02 11:10:28;;;;;;;7.90;3.17;;;;;;;;;;5057852;28;20108;-72
2023/01/02 11:12:54;;;;;;;10.25;2.83;;;;;;;;;;5056127;28;20381;-73
2023/01/02 11:15:29;;;;;;;6.03;3.03;;;;;;;;;;5036566;28;21344;-72
2023/01/02 11:17:56;;;;;;;5.45;3.00;;;;;;;;;;5037148;28;20055;-72
2023/01/02 11:20:22;;;;;;;6.78;2.80;;;;;;;;;;5039625;28;20037;-73
2023/01/02 11:22:48;;;;;;;6.95;2.53;;;;;;;;;;5037038;28;20048;-73
2023/01/02 11:25:22;;;;;;;5.65;2.00;;;;;;;;;;5022676;28;20040;-73
2023/01/02 11:27:50;;;;;;;5.35;2.20;;;;;;;;;;5057559;28;20067;-73
2023/01/02 11:30:32;;;;;;;3.97;1.92;;;;;;;;;;5035663;28;20059;-73
2023/01/02 11:33:21;;;;;;;5.82;2.00;;;;;;;;;;5052746;28;20051;-72
2023/01/02 11:35:47;;;;;;;6.03;2.20;;;;;;;;;;5025711;28;20598;-73
2023/01/02 11:38:24;;;;;;;8.35;3.35;;;;;;;;;;5038042;28;20036;-72
2023/01/02 11:40:51;;;;;;;6.07;2.22;;;;;;;;;;5021099;28;20054;-70
2023/01/02 11:46:08;;;;;;;7.72;2.72;;;;;;;;;;5055625;28;20130;-73
2023/01/02 11:48:35;;;;;;;5.13;2.58;;;;;;;;;;5027830;28;20537;-73
2023/01/02 11:51:01;;;;;;;7.22;2.15;;;;;;;;;;5052911;28;20106;-73
2023/01/02 11:53:29;;;;;;;6.88;3.00;;;;;;;;;;5017733;28;20070;-73
2023/01/02 11:56:11;;;;;;;7.32;2.38;;;;;;;;;;5039188;28;20058;-73
2023/01/02 11:58:43;;;;;;;3.38;1.60;;;;;;;;;;5043004;28;20187;-72
2023/01/02 12:01:30;;;;;;;3.92;1.75;;;;;;;;;;5056647;28;20071;-72
2023/01/02 12:03:56;;;;;;;5.32;2.25;;;;;;;;;;5048385;28;21602;-71
2023/01/02 12:06:34;;;;;;;5.28;2.30;;;;;;;;;;5031753;28;20284;-72
2023/01/02 12:09:13;;;;;;;5.03;1.92;;;;;;;;;;5056340;28;20048;-73
2023/01/02 12:12:06;;;;;;;5.03;1.88;;;;;;;;;;5044660;28;20047;-72
2023/01/02 12:14:32;;;;;;;3.50;1.45;;;;;;;;;;5039857;28;20060;-72
2023/01/02 12:17:02;;;;;;;5.40;1.70;;;;;;;;;;5049357;28;20127;-72
2023/01/02 12:19:36;;;;;;;3.83;1.70;;;;;;;;;;5034872;28;20045;-72
2023/01/02 12:22:13;;;;;;;4.05;1.75;;;;;;;;;;5038540;28;20062;-72
2023/01/02 12:24:45;;;;;;;7.20;1.77;;;;;;;;;;5040311;28;20048;-72
2023/01/02 12:27:23;;;;;;;6.05;1.95;;;;;;;;;;5038434;28;20492;-73
2023/01/02 12:30:01;;;;;;;3.33;1.50;;;;;;;;;;5040682;28;20129;-73
2023/01/02 12:32:46;;;;;;;4.07;1.42;;;;;;;;;;5023491;28;20866;-72
2023/01/02 12:35:44;;;;;;;7.70;1.83;;;;;;;;;;5039982;28;20040;-73
2023/01/02 12:38:13;;;;;;;10.80;2.20;;;;;;;;;;5015455;28;20892;-73
2023/01/02 12:41:10;;;;;;;4.68;1.70;;;9.70;99.90;;;;;;5035758;28;20968;-73
2023/01/02 12:43:39;;;;;;;5.47;1.42;;;;;;;;;;5024903;28;20076;-72
2023/01/02 12:46:05;;;;;;;7.97;1.73;;;;;;;;;;5024139;28;20043;-71
2023/01/02 12:48:45;;;;;;;5.25;1.80;;;;;;;;;;5056426;28;20169;-73
2023/01/02 12:51:11;;;;;;;12.68;1.80;;;;;;;;;;5056074;28;20652;-69
2023/01/02 12:53:50;;;;;;;7.57;1.55;;;;;;;;;;5023252;28;20645;-72
2023/01/02 12:56:37;;;;;;;9.38;1.70;;;;;;;;;;5038130;28;20044;-73
2023/01/02 12:59:22;;;;;;;9.05;1.70;;;;;;;;;;5031309;28;20131;-72
2023/01/02 13:01:57;;;;;;;7.38;2.78;;;;;;;;;;5033347;28;20044;-72
2023/01/02 13:04:26;;;;;;;7.90;2.05;;;;;;;;;;5032388;28;20134;-74
2023/01/02 13:06:55;;;;;;;11.40;2.88;;;;;;;;;;5035444;28;20096;-72
2023/01/02 13:09:31;;;;;;;17.67;5.15;;;;;;;;;;5036760;28;20067;-73
2023/01/02 13:12:14;;;;;;;18.10;4.47;;;;;;;;;;5051260;28;20121;-73
2023/01/02 13:14:45;;;;;;;12.23;2.85;;;;;;;;;;5037873;28;20114;-73
2023/01/02 13:17:14;;;;;;;12.02;2.78;;;;;;;;;;5054585;28;20032;-72
2023/01/02 13:19:48;;;;;;;8.77;2.20;;;;;;;;;;5035001;28;20047;-73
2023/01/02 13:22:24;;;;;;;12.35;2.90;;;;;;;;;;5034830;28;20047;-73
2023/01/02 13:24:50;;;;;;;9.00;2.03;;;;;;;;;;5037292;28;20097;-74
2023/01/02 13:27:16;;;;;;;11.07;1.90;;;;;;;;;;5018086;28;20135;-72
2023/01/02 13:29:43;;;;;;;12.18;1.80;;;;;;;;;;5004630;28;20048;-72
2023/01/02 13:32:14;;;;;;;14.25;2.20;;;;;;;;;;5054699;28;20049;-73
2023/01/02 13:34:53;;;;;;;9.05;1.50;;;;;;;;;;5025364;28;20049;-72
2023/01/02 13:37:24;;;;;;;11.52;1.80;;;;;;;;;;5035215;28;20048;-73
2023/01/02 13:39:53;;;;;;;11.48;1.65;;;;;;;;;;5022971;28;20127;-72
2023/01/02 13:45:10;;;;;;;10.38;2.00;;;;;;;;;;5034483;28;20051;-73
2023/01/02 13:47:37;;;;;;;11.13;1.80;;;;;;;;;;5041625;28;20052;-73
2023/01/02 13:50:08;;;;;;;16.35;2.17;;;;;;;;;;5048342;28;20048;-74
2023/01/02 13:52:34;;;;;;;17.48;3.00;;;;;;;;;;5058897;28;20052;-73
2023/01/02 13:55:27;;;;;;;10.45;2.25;;;;;;;;;;5055784;28;20064;-73
2023/01/02 13:58:12;;;;;;;9.80;2.22;;;;;;;;;;5019058;28;20124;-73
2023/01/02 14:00:44;;;;;;;10.05;1.92;;;;;;;;;;5041662;28;20115;-72
2023/01/02 14:03:20;;;;;;;9.38;1.85;;;;;;;;;;5027206;28;20044;-73
2023/01/02 14:05:58;;;;;;;15.75;2.80;;;;;;;;;;5035069;28;20112;-72
2023/01/02 14:08:24;;;;;;;14.85;2.55;;;;;;;;;;5036245;28;20049;-72
2023/01/02 14:10:51;;;;;;;11.07;1.88;;;;;;;;;;5019929;28;20052;-72
2023/01/02 14:13:21;;;;;;;15.35;2.63;;;;;;;;;;5051049;28;20413;-72
2023/01/02 14:16:07;;;;;;;10.55;2.40;;;;;;;;;;5032296;28;21380;-73
2023/01/02 14:18:33;;;;;;;18.00;2.33;;;;;;;;;;5038256;28;20039;-73
2023/01/02 14:20:59;;;;;;;13.10;2.42;;;;;;;;;;5054911;28;21007;-72
2023/01/02 14:23:27;;;;;;;9.75;2.08;;;;;;;;;;5022627;28;20040;-72
2023/01/02 14:25:53;;;;;;;12.70;2.30;;;;;;;;;;5032997;28;20131;-73
2023/01/02 14:28:28;;;;;;;20.05;3.80;;;;;;;;;;5035125;28;22806;-73
2023/01/02 14:30:54;;;;;;;12.95;3.03;;;;;;;;;;5032194;28;20078;-73
2023/01/02 14:33:41;;;;;;;20.75;3.83;;;;;;;;;;5018197;28;20605;-72
2023/01/02 14:36:11;;;;;;;13.50;3.17;;;;;;;;;;5035790;28;20127;-71
2023/01/02 14:38:42;;;;;;;20.15;3.55;;;;;;;;;;5052634;28;20092;-72
2023/01/02 14:44:19;;;;;;;12.85;3.03;;;;;;;;;;5041143;28;20127;-72
2023/01/02 14:46:46;;;;;;;13.75;2.33;;;;;;;;;;5041056;28;20072;-72
2023/01/02 14:49:14;;;;;;;15.65;2.92;;;;;;;;;;5024246;28;20044;-71
2023/01/02 14:51:42;;;;;;;16.52;2.67;;;;;;;;;;5038153;28;20143;-72
2023/01/02 14:54:14;;;;;;;19.30;3.50;;;;;;;;;;5054414;28;20051;-72